Independence, California
Current Conditions -  °F | °C
As of 3:56 PM on Monday 20 Oct 2014 (Local Time) from KBIH Reporting Station
Clear Clear  
Wind Chill: 83°   Ceiling: Unl
Heat Index: 83°   Visibility: 10mi
Dew Point: 22°   Wind: 15mph
Humidity: 11%   Direction: 160°SSE
Pressure: 29.83"   Gusts: 24mph
Location:  36.8°N, 118.2°W
Report Text: KBIH 202256Z AUTO 16013G21KT 10SM CLR 28/M06 A2983 RMK AO2 SLP062 T02831056
Loading
Personal Weather Stations






























Interactive Weather Map
Tropical Storm Tracking
New forecast layout! Learn more

10-Day Weather Forecast

Advertisements
Track Severe Weather on mobile